sensor_id;sensor_type;location;lat;lon;timestamp;pressure;altitude;pressure_sealevel;temperature;humidity
73073;BME280;61260;51.090;-1.786;2022-09-03T00:00:34;100195.27;;;15.76;79.78
73073;BME280;61260;51.090;-1.786;2022-09-03T00:03:11;100191.95;;;15.74;79.68
73073;BME280;61260;51.090;-1.786;2022-09-03T00:05:49;100189.20;;;15.74;79.57
73073;BME280;61260;51.090;-1.786;2022-09-03T00:08:22;100187.39;;;15.70;79.58
73073;BME280;61260;51.090;-1.786;2022-09-03T00:10:58;100189.25;;;15.67;79.56
73073;BME280;61260;51.090;-1.786;2022-09-03T00:13:34;100184.20;;;15.64;79.55
73073;BME280;61260;51.090;-1.786;2022-09-03T00:16:07;100182.30;;;15.61;79.33
73073;BME280;61260;51.090;-1.786;2022-09-03T00:18:43;100181.66;;;15.59;79.20
73073;BME280;61260;51.090;-1.786;2022-09-03T00:21:17;100179.51;;;15.53;79.17
73073;BME280;61260;51.090;-1.786;2022-09-03T00:23:50;100178.23;;;15.49;79.17
73073;BME280;61260;51.090;-1.786;2022-09-03T00:26:24;100167.44;;;15.45;79.05
73073;BME280;61260;51.090;-1.786;2022-09-03T00:28:58;100164.04;;;15.40;79.19
73073;BME280;61260;51.090;-1.786;2022-09-03T00:31:32;100163.01;;;15.37;79.35
73073;BME280;61260;51.090;-1.786;2022-09-03T00:34:11;100160.21;;;15.31;79.57
73073;BME280;61260;51.090;-1.786;2022-09-03T00:36:44;100157.48;;;15.26;80.00
73073;BME280;61260;51.090;-1.786;2022-09-03T00:39:16;100156.91;;;15.22;80.39
73073;BME280;61260;51.090;-1.786;2022-09-03T00:41:57;100158.08;;;15.20;80.39
73073;BME280;61260;51.090;-1.786;2022-09-03T00:44:53;100154.94;;;15.20;80.45
73073;BME280;61260;51.090;-1.786;2022-09-03T00:47:31;100153.35;;;15.16;80.30
73073;BME280;61260;51.090;-1.786;2022-09-03T00:50:08;100154.17;;;15.11;80.11
73073;BME280;61260;51.090;-1.786;2022-09-03T00:52:50;100153.36;;;15.08;79.96
73073;BME280;61260;51.090;-1.786;2022-09-03T00:55:33;100151.79;;;15.05;79.97
73073;BME280;61260;51.090;-1.786;2022-09-03T00:58:23;100146.11;;;15.03;80.12
73073;BME280;61260;51.090;-1.786;2022-09-03T01:00:54;100145.02;;;15.02;80.00
73073;BME280;61260;51.090;-1.786;2022-09-03T01:03:30;100146.02;;;15.02;80.00
73073;BME280;61260;51.090;-1.786;2022-09-03T01:06:16;100147.44;;;15.01;80.06
73073;BME280;61260;51.090;-1.786;2022-09-03T01:11:46;100135.01;;;14.98;79.92
73073;BME280;61260;51.090;-1.786;2022-09-03T01:14:32;100138.65;;;14.93;79.88
73073;BME280;61260;51.090;-1.786;2022-09-03T01:17:10;100140.60;;;14.88;80.07
73073;BME280;61260;51.090;-1.786;2022-09-03T01:25:53;100142.96;;;14.79;80.41
73073;BME280;61260;51.090;-1.786;2022-09-03T01:28:43;100137.45;;;14.78;80.70
73073;BME280;61260;51.090;-1.786;2022-09-03T01:31:17;100139.17;;;14.78;80.84
73073;BME280;61260;51.090;-1.786;2022-09-03T01:34:00;100138.45;;;14.75;80.99
73073;BME280;61260;51.090;-1.786;2022-09-03T01:36:39;100136.50;;;14.76;81.13
73073;BME280;61260;51.090;-1.786;2022-09-03T01:39:17;100136.97;;;14.75;81.24
73073;BME280;61260;51.090;-1.786;2022-09-03T01:41:59;100134.91;;;14.74;81.42
73073;BME280;61260;51.090;-1.786;2022-09-03T01:44:57;100131.74;;;14.70;81.63
73073;BME280;61260;51.090;-1.786;2022-09-03T01:47:44;100130.66;;;14.61;82.03
73073;BME280;61260;51.090;-1.786;2022-09-03T01:50:29;100134.58;;;14.51;81.37
73073;BME280;61260;51.090;-1.786;2022-09-03T01:53:09;100136.14;;;14.41;81.21
73073;BME280;61260;51.090;-1.786;2022-09-03T01:55:50;100134.73;;;14.32;81.21
73073;BME280;61260;51.090;-1.786;2022-09-03T01:58:25;100139.59;;;14.30;81.17
73073;BME280;61260;51.090;-1.786;2022-09-03T02:01:00;100136.61;;;14.23;81.21
73073;BME280;61260;51.090;-1.786;2022-09-03T02:03:37;100145.77;;;14.19;81.39
73073;BME280;61260;51.090;-1.786;2022-09-03T02:06:08;100146.60;;;14.17;81.64
73073;BME280;61260;51.090;-1.786;2022-09-03T02:08:39;100142.75;;;14.17;81.88
73073;BME280;61260;51.090;-1.786;2022-09-03T02:11:10;100136.17;;;14.17;82.18
73073;BME280;61260;51.090;-1.786;2022-09-03T02:13:42;100133.52;;;14.20;83.21
73073;BME280;61260;51.090;-1.786;2022-09-03T02:16:15;100131.52;;;14.25;84.00
73073;BME280;61260;51.090;-1.786;2022-09-03T02:18:50;100136.27;;;14.29;83.67
73073;BME280;61260;51.090;-1.786;2022-09-03T02:21:23;100138.73;;;14.30;84.11
73073;BME280;61260;51.090;-1.786;2022-09-03T02:23:53;100137.94;;;14.30;83.69
73073;BME280;61260;51.090;-1.786;2022-09-03T02:26:24;100138.83;;;14.25;83.10
73073;BME280;61260;51.090;-1.786;2022-09-03T02:28:54;100139.02;;;14.19;82.90
73073;BME280;61260;51.090;-1.786;2022-09-03T02:31:25;100140.00;;;14.17;83.08
73073;BME280;61260;51.090;-1.786;2022-09-03T02:33:56;100140.32;;;14.17;83.05
73073;BME280;61260;51.090;-1.786;2022-09-03T02:36:28;100139.23;;;14.17;83.37
73073;BME280;61260;51.090;-1.786;2022-09-03T02:38:59;100138.67;;;14.17;83.45
73073;BME280;61260;51.090;-1.786;2022-09-03T02:41:28;100137.71;;;14.16;83.49
73073;BME280;61260;51.090;-1.786;2022-09-03T02:44:02;100136.58;;;14.15;83.41
73073;BME280;61260;51.090;-1.786;2022-09-03T02:46:38;100136.56;;;14.13;83.44
73073;BME280;61260;51.090;-1.786;2022-09-03T02:49:08;100139.14;;;14.11;83.12
73073;BME280;61260;51.090;-1.786;2022-09-03T02:51:40;100136.27;;;14.07;82.82
73073;BME280;61260;51.090;-1.786;2022-09-03T02:54:11;100140.51;;;13.99;82.53
73073;BME280;61260;51.090;-1.786;2022-09-03T02:56:41;100137.37;;;13.91;82.36
73073;BME280;61260;51.090;-1.786;2022-09-03T02:59:10;100137.85;;;13.86;82.06
73073;BME280;61260;51.090;-1.786;2022-09-03T03:01:40;100138.19;;;13.80;82.12
73073;BME280;61260;51.090;-1.786;2022-09-03T03:04:10;100137.27;;;13.75;82.17
73073;BME280;61260;51.090;-1.786;2022-09-03T03:06:39;100133.93;;;13.72;82.23
73073;BME280;61260;51.090;-1.786;2022-09-03T03:09:09;100138.90;;;13.73;82.77
73073;BME280;61260;51.090;-1.786;2022-09-03T03:11:39;100136.90;;;13.76;83.70
73073;BME280;61260;51.090;-1.786;2022-09-03T03:14:08;100140.14;;;13.79;83.72
73073;BME280;61260;51.090;-1.786;2022-09-03T03:16:38;100142.99;;;13.83;83.81
73073;BME280;61260;51.090;-1.786;2022-09-03T03:19:08;100136.64;;;13.90;84.25
73073;BME280;61260;51.090;-1.786;2022-09-03T03:21:38;100134.54;;;14.00;84.72
73073;BME280;61260;51.090;-1.786;2022-09-03T03:24:08;100133.83;;;14.07;84.86
73073;BME280;61260;51.090;-1.786;2022-09-03T03:26:38;100135.16;;;14.13;84.63
73073;BME280;61260;51.090;-1.786;2022-09-03T03:29:08;100132.41;;;14.19;84.67
73073;BME280;61260;51.090;-1.786;2022-09-03T03:31:42;100131.02;;;14.21;84.68
73073;BME280;61260;51.090;-1.786;2022-09-03T03:34:12;100127.80;;;14.21;84.80
73073;BME280;61260;51.090;-1.786;2022-09-03T03:36:41;100123.08;;;14.18;84.90
73073;BME280;61260;51.090;-1.786;2022-09-03T03:39:11;100126.10;;;14.16;84.86
73073;BME280;61260;51.090;-1.786;2022-09-03T03:41:41;100126.61;;;14.14;85.01
73073;BME280;61260;51.090;-1.786;2022-09-03T03:44:10;100126.03;;;14.11;85.15
73073;BME280;61260;51.090;-1.786;2022-09-03T03:46:41;100127.15;;;14.12;85.36
73073;BME280;61260;51.090;-1.786;2022-09-03T03:49:11;100127.81;;;14.15;85.39
73073;BME280;61260;51.090;-1.786;2022-09-03T03:51:41;100131.64;;;14.20;85.50
73073;BME280;61260;51.090;-1.786;2022-09-03T03:54:11;100128.34;;;14.28;85.35
73073;BME280;61260;51.090;-1.786;2022-09-03T03:56:40;100132.48;;;14.36;84.99
73073;BME280;61260;51.090;-1.786;2022-09-03T03:59:10;100131.11;;;14.41;84.90
73073;BME280;61260;51.090;-1.786;2022-09-03T04:01:40;100132.66;;;14.46;84.82
73073;BME280;61260;51.090;-1.786;2022-09-03T04:04:09;100128.61;;;14.51;84.76
73073;BME280;61260;51.090;-1.786;2022-09-03T04:06:39;100128.65;;;14.56;84.52
73073;BME280;61260;51.090;-1.786;2022-09-03T04:09:09;100122.23;;;14.59;84.40
73073;BME280;61260;51.090;-1.786;2022-09-03T04:11:38;100118.34;;;14.62;84.42
73073;BME280;61260;51.090;-1.786;2022-09-03T04:14:08;100115.83;;;14.62;84.13
73073;BME280;61260;51.090;-1.786;2022-09-03T04:16:38;100112.85;;;14.62;84.38
73073;BME280;61260;51.090;-1.786;2022-09-03T04:19:07;100111.94;;;14.66;84.43
73073;BME280;61260;51.090;-1.786;2022-09-03T04:21:37;100116.35;;;14.69;84.15
73073;BME280;61260;51.090;-1.786;2022-09-03T04:24:07;100110.18;;;14.63;82.97
73073;BME280;61260;51.090;-1.786;2022-09-03T04:26:38;100111.05;;;14.54;82.63
73073;BME280;61260;51.090;-1.786;2022-09-03T04:29:09;100106.67;;;14.46;82.87
73073;BME280;61260;51.090;-1.786;2022-09-03T04:31:39;100104.61;;;14.34;82.95
73073;BME280;61260;51.090;-1.786;2022-09-03T04:34:29;100107.10;;;14.29;83.06
73073;BME280;61260;51.090;-1.786;2022-09-03T04:36:58;100106.70;;;14.30;83.04
73073;BME280;61260;51.090;-1.786;2022-09-03T04:39:28;100103.05;;;14.26;83.09
73073;BME280;61260;51.090;-1.786;2022-09-03T04:41:58;100099.67;;;14.19;83.23
73073;BME280;61260;51.090;-1.786;2022-09-03T04:44:27;100098.48;;;14.10;83.55
73073;BME280;61260;51.090;-1.786;2022-09-03T04:46:57;100103.27;;;14.02;83.74
73073;BME280;61260;51.090;-1.786;2022-09-03T04:49:27;100098.90;;;13.95;83.98
73073;BME280;61260;51.090;-1.786;2022-09-03T04:51:56;100094.46;;;13.91;84.02
73073;BME280;61260;51.090;-1.786;2022-09-03T04:54:26;100097.77;;;13.86;84.05
73073;BME280;61260;51.090;-1.786;2022-09-03T04:56:56;100092.71;;;13.81;84.29
73073;BME280;61260;51.090;-1.786;2022-09-03T04:59:26;100094.02;;;13.79;84.42
73073;BME280;61260;51.090;-1.786;2022-09-03T05:01:55;100093.93;;;13.77;84.71
73073;BME280;61260;51.090;-1.786;2022-09-03T05:04:25;100087.80;;;13.76;84.69
73073;BME280;61260;51.090;-1.786;2022-09-03T05:06:55;100084.06;;;13.79;84.86
73073;BME280;61260;51.090;-1.786;2022-09-03T05:09:24;100085.31;;;13.78;84.90
73073;BME280;61260;51.090;-1.786;2022-09-03T05:11:54;100082.92;;;13.75;84.79
73073;BME280;61260;51.090;-1.786;2022-09-03T05:14:23;100085.73;;;13.73;84.90
73073;BME280;61260;51.090;-1.786;2022-09-03T05:16:53;100086.09;;;13.77;84.93
73073;BME280;61260;51.090;-1.786;2022-09-03T05:19:23;100089.59;;;13.83;85.06
73073;BME280;61260;51.090;-1.786;2022-09-03T05:21:52;100088.76;;;13.87;85.14
73073;BME280;61260;51.090;-1.786;2022-09-03T05:24:22;100087.98;;;13.93;85.03
73073;BME280;61260;51.090;-1.786;2022-09-03T05:26:52;100091.77;;;13.97;84.96
73073;BME280;61260;51.090;-1.786;2022-09-03T05:29:22;100091.78;;;13.99;84.90
73073;BME280;61260;51.090;-1.786;2022-09-03T05:31:53;100095.59;;;14.01;84.90
73073;BME280;61260;51.090;-1.786;2022-09-03T05:34:22;100096.64;;;14.07;85.10
73073;BME280;61260;51.090;-1.786;2022-09-03T05:36:53;100099.79;;;14.14;85.11
73073;BME280;61260;51.090;-1.786;2022-09-03T05:39:23;100104.82;;;14.22;85.10
73073;BME280;61260;51.090;-1.786;2022-09-03T05:41:53;100101.11;;;14.28;84.90
73073;BME280;61260;51.090;-1.786;2022-09-03T05:44:23;100094.39;;;14.30;84.99
73073;BME280;61260;51.090;-1.786;2022-09-03T05:46:52;100097.94;;;14.33;85.09
73073;BME280;61260;51.090;-1.786;2022-09-03T05:49:24;100102.52;;;14.37;85.16
73073;BME280;61260;51.090;-1.786;2022-09-03T05:51:53;100099.41;;;14.41;85.15
73073;BME280;61260;51.090;-1.786;2022-09-03T05:54:23;100102.92;;;14.49;84.93
73073;BME280;61260;51.090;-1.786;2022-09-03T05:56:53;100105.00;;;14.54;84.82
73073;BME280;61260;51.090;-1.786;2022-09-03T05:59:23;100106.52;;;14.57;84.87
73073;BME280;61260;51.090;-1.786;2022-09-03T06:01:52;100106.24;;;14.63;84.76
73073;BME280;61260;51.090;-1.786;2022-09-03T06:04:22;100110.80;;;14.72;84.61
73073;BME280;61260;51.090;-1.786;2022-09-03T06:06:52;100109.91;;;14.80;84.44
73073;BME280;61260;51.090;-1.786;2022-09-03T06:09:22;100110.80;;;14.86;84.38
73073;BME280;61260;51.090;-1.786;2022-09-03T06:11:52;100116.66;;;14.92;84.25
73073;BME280;61260;51.090;-1.786;2022-09-03T06:14:22;100114.04;;;14.99;84.10
73073;BME280;61260;51.090;-1.786;2022-09-03T06:16:52;100115.16;;;15.03;83.93
73073;BME280;61260;51.090;-1.786;2022-09-03T06:19:22;100115.81;;;15.06;83.82
73073;BME280;61260;51.090;-1.786;2022-09-03T06:21:52;100117.23;;;15.10;83.77
73073;BME280;61260;51.090;-1.786;2022-09-03T06:24:22;100115.50;;;15.11;83.76
73073;BME280;61260;51.090;-1.786;2022-09-03T06:26:54;100114.10;;;15.13;83.78
73073;BME280;61260;51.090;-1.786;2022-09-03T06:29:24;100118.23;;;15.20;83.83
73073;BME280;61260;51.090;-1.786;2022-09-03T06:31:54;100118.59;;;15.27;83.68
73073;BME280;61260;51.090;-1.786;2022-09-03T06:34:24;100118.34;;;15.35;83.56
73073;BME280;61260;51.090;-1.786;2022-09-03T06:36:54;100119.95;;;15.48;83.27
73073;BME280;61260;51.090;-1.786;2022-09-03T06:39:24;100122.52;;;15.57;83.21
73073;BME280;61260;51.090;-1.786;2022-09-03T06:41:54;100123.25;;;15.67;83.17
73073;BME280;61260;51.090;-1.786;2022-09-03T06:44:23;100124.32;;;15.78;83.26
73073;BME280;61260;51.090;-1.786;2022-09-03T06:46:53;100125.84;;;15.91;83.18
73073;BME280;61260;51.090;-1.786;2022-09-03T06:49:23;100125.31;;;16.03;83.18
73073;BME280;61260;51.090;-1.786;2022-09-03T06:51:53;100127.46;;;16.13;83.14
73073;BME280;61260;51.090;-1.786;2022-09-03T06:54:23;100129.29;;;16.24;83.15
73073;BME280;61260;51.090;-1.786;2022-09-03T06:56:52;100130.23;;;16.33;83.17
73073;BME280;61260;51.090;-1.786;2022-09-03T06:59:22;100133.66;;;16.40;83.11
73073;BME280;61260;51.090;-1.786;2022-09-03T07:01:52;100135.39;;;16.47;83.16
73073;BME280;61260;51.090;-1.786;2022-09-03T07:04:22;100137.84;;;16.48;83.01
73073;BME280;61260;51.090;-1.786;2022-09-03T07:06:52;100137.05;;;16.51;82.76
73073;BME280;61260;51.090;-1.786;2022-09-03T07:09:21;100139.95;;;16.53;82.66
73073;BME280;61260;51.090;-1.786;2022-09-03T07:11:51;100137.92;;;16.55;82.66
73073;BME280;61260;51.090;-1.786;2022-09-03T07:14:21;100135.24;;;16.59;82.66
73073;BME280;61260;51.090;-1.786;2022-09-03T07:16:51;100139.48;;;16.64;82.73
73073;BME280;61260;51.090;-1.786;2022-09-03T07:19:21;100135.08;;;16.66;82.52
73073;BME280;61260;51.090;-1.786;2022-09-03T07:21:51;100137.73;;;16.75;82.39
73073;BME280;61260;51.090;-1.786;2022-09-03T07:24:20;100135.45;;;16.87;82.27
73073;BME280;61260;51.090;-1.786;2022-09-03T07:26:50;100136.37;;;17.00;82.12
73073;BME280;61260;51.090;-1.786;2022-09-03T07:29:20;100137.13;;;17.15;81.80
73073;BME280;61260;51.090;-1.786;2022-09-03T07:31:51;100139.61;;;17.37;81.44
73073;BME280;61260;51.090;-1.786;2022-09-03T07:34:22;100141.95;;;17.65;81.19
73073;BME280;61260;51.090;-1.786;2022-09-03T07:36:53;100142.91;;;17.91;80.34
73073;BME280;61260;51.090;-1.786;2022-09-03T07:39:23;100143.02;;;18.14;80.47
73073;BME280;61260;51.090;-1.786;2022-09-03T07:41:53;100145.84;;;18.43;79.80
73073;BME280;61260;51.090;-1.786;2022-09-03T07:44:24;100145.48;;;18.77;79.15
73073;BME280;61260;51.090;-1.786;2022-09-03T07:46:55;100154.41;;;19.13;78.60
73073;BME280;61260;51.090;-1.786;2022-09-03T07:49:25;100153.50;;;19.40;77.48
73073;BME280;61260;51.090;-1.786;2022-09-03T07:51:54;100152.00;;;19.53;77.01
73073;BME280;61260;51.090;-1.786;2022-09-03T07:54:24;100151.56;;;19.75;76.58
73073;BME280;61260;51.090;-1.786;2022-09-03T07:56:54;100152.83;;;19.94;75.80
73073;BME280;61260;51.090;-1.786;2022-09-03T07:59:24;100155.27;;;20.14;75.39
73073;BME280;61260;51.090;-1.786;2022-09-03T08:01:54;100158.27;;;20.41;74.83
73073;BME280;61260;51.090;-1.786;2022-09-03T08:04:24;100152.14;;;20.72;73.90
73073;BME280;61260;51.090;-1.786;2022-09-03T08:06:53;100147.05;;;20.97;72.51
73073;BME280;61260;51.090;-1.786;2022-09-03T08:09:24;100149.92;;;21.13;72.45
73073;BME280;61260;51.090;-1.786;2022-09-03T08:11:53;100150.77;;;21.27;71.74
73073;BME280;61260;51.090;-1.786;2022-09-03T08:14:23;100150.30;;;21.55;70.24
73073;BME280;61260;51.090;-1.786;2022-09-03T08:16:53;100153.58;;;21.74;69.23
73073;BME280;61260;51.090;-1.786;2022-09-03T08:19:23;100154.83;;;21.67;67.70
73073;BME280;61260;51.090;-1.786;2022-09-03T08:21:52;100155.16;;;21.51;69.14
73073;BME280;61260;51.090;-1.786;2022-09-03T08:24:22;100151.45;;;21.49;69.75
73073;BME280;61260;51.090;-1.786;2022-09-03T08:26:53;100152.74;;;21.52;69.41
73073;BME280;61260;51.090;-1.786;2022-09-03T08:29:23;100146.02;;;21.47;69.35
73073;BME280;61260;51.090;-1.786;2022-09-03T08:31:52;100150.31;;;21.38;68.75
73073;BME280;61260;51.090;-1.786;2022-09-03T08:34:22;100151.19;;;21.42;68.84
73073;BME280;61260;51.090;-1.786;2022-09-03T08:36:52;100157.98;;;21.39;68.77
73073;BME280;61260;51.090;-1.786;2022-09-03T08:39:21;100162.54;;;21.46;69.45
73073;BME280;61260;51.090;-1.786;2022-09-03T08:42:18;100158.98;;;21.53;68.91
73073;BME280;61260;51.090;-1.786;2022-09-03T08:44:52;100168.84;;;21.53;69.10
73073;BME280;61260;51.090;-1.786;2022-09-03T08:47:27;100169.50;;;21.52;68.09
73073;BME280;61260;51.090;-1.786;2022-09-03T08:50:00;100170.81;;;21.41;67.79
73073;BME280;61260;51.090;-1.786;2022-09-03T08:52:35;100171.77;;;21.41;68.13
73073;BME280;61260;51.090;-1.786;2022-09-03T08:55:20;100170.94;;;21.47;68.23
73073;BME280;61260;51.090;-1.786;2022-09-03T08:57:57;100173.25;;;21.51;67.83
73073;BME280;61260;51.090;-1.786;2022-09-03T09:00:41;100172.54;;;21.51;67.76
73073;BME280;61260;51.090;-1.786;2022-09-03T09:03:45;100180.45;;;21.56;68.05
73073;BME280;61260;51.090;-1.786;2022-09-03T09:06:25;100178.98;;;21.67;67.38
73073;BME280;61260;51.090;-1.786;2022-09-03T09:09:07;100177.98;;;21.66;67.46
73073;BME280;61260;51.090;-1.786;2022-09-03T09:11:52;100174.16;;;21.66;67.02
73073;BME280;61260;51.090;-1.786;2022-09-03T09:14:33;100172.84;;;21.73;66.69
73073;BME280;61260;51.090;-1.786;2022-09-03T09:17:13;100173.83;;;21.93;66.49
73073;BME280;61260;51.090;-1.786;2022-09-03T09:19:51;100176.77;;;22.25;65.35
73073;BME280;61260;51.090;-1.786;2022-09-03T09:22:30;100182.50;;;22.56;64.41
73073;BME280;61260;51.090;-1.786;2022-09-03T09:25:06;100188.52;;;22.71;63.49
73073;BME280;61260;51.090;-1.786;2022-09-03T09:27:43;100191.23;;;22.67;61.91
73073;BME280;61260;51.090;-1.786;2022-09-03T09:30:19;100191.19;;;22.49;62.21
73073;BME280;61260;51.090;-1.786;2022-09-03T09:32:48;100189.02;;;22.46;62.66
73073;BME280;61260;51.090;-1.786;2022-09-03T09:35:19;100193.52;;;22.55;62.92
73073;BME280;61260;51.090;-1.786;2022-09-03T09:37:51;100191.83;;;22.62;62.57
73073;BME280;61260;51.090;-1.786;2022-09-03T09:40:27;100195.23;;;22.66;62.50
73073;BME280;61260;51.090;-1.786;2022-09-03T09:43:11;100197.30;;;22.63;61.42
73073;BME280;61260;51.090;-1.786;2022-09-03T09:45:43;100199.38;;;22.49;61.28
73073;BME280;61260;51.090;-1.786;2022-09-03T09:48:24;100199.14;;;22.35;61.79
73073;BME280;61260;51.090;-1.786;2022-09-03T09:51:10;100202.65;;;22.29;62.60
73073;BME280;61260;51.090;-1.786;2022-09-03T09:53:41;100200.84;;;22.33;62.13
73073;BME280;61260;51.090;-1.786;2022-09-03T09:56:21;100203.80;;;22.51;62.03
73073;BME280;61260;51.090;-1.786;2022-09-03T09:59:00;100202.86;;;22.73;61.08
73073;BME280;61260;51.090;-1.786;2022-09-03T10:01:30;100202.39;;;22.82;60.82
73073;BME280;61260;51.090;-1.786;2022-09-03T10:04:09;100204.59;;;22.90;60.56
73073;BME280;61260;51.090;-1.786;2022-09-03T10:06:40;100205.94;;;22.87;60.56
73073;BME280;61260;51.090;-1.786;2022-09-03T10:09:26;100200.75;;;22.87;60.89
73073;BME280;61260;51.090;-1.786;2022-09-03T10:12:05;100198.78;;;22.90;60.56
73073;BME280;61260;51.090;-1.786;2022-09-03T10:14:41;100193.81;;;22.91;60.13
73073;BME280;61260;51.090;-1.786;2022-09-03T10:17:29;100196.41;;;23.14;60.10
73073;BME280;61260;51.090;-1.786;2022-09-03T10:20:06;100194.27;;;23.77;59.08
73073;BME280;61260;51.090;-1.786;2022-09-03T10:23:02;100187.75;;;24.16;58.16
73073;BME280;61260;51.090;-1.786;2022-09-03T10:25:42;100188.70;;;24.55;54.95
73073;BME280;61260;51.090;-1.786;2022-09-03T10:28:17;100180.53;;;25.06;53.97
73073;BME280;61260;51.090;-1.786;2022-09-03T10:31:05;100178.30;;;25.59;53.06
73073;BME280;61260;51.090;-1.786;2022-09-03T10:33:43;100179.90;;;25.41;52.36
73073;BME280;61260;51.090;-1.786;2022-09-03T10:36:20;100185.86;;;25.02;53.02
73073;BME280;61260;51.090;-1.786;2022-09-03T10:38:57;100183.02;;;24.50;53.29
73073;BME280;61260;51.090;-1.786;2022-09-03T10:41:40;100183.46;;;24.00;54.69
73073;BME280;61260;51.090;-1.786;2022-09-03T10:44:33;100185.41;;;23.68;55.49
73073;BME280;61260;51.090;-1.786;2022-09-03T10:47:17;100177.84;;;23.54;56.41
73073;BME280;61260;51.090;-1.786;2022-09-03T10:49:55;100180.96;;;23.48;56.65
73073;BME280;61260;51.090;-1.786;2022-09-03T10:52:34;100188.25;;;23.44;56.71
73073;BME280;61260;51.090;-1.786;2022-09-03T10:55:21;100185.67;;;23.42;57.11
73073;BME280;61260;51.090;-1.786;2022-09-03T10:58:07;100190.88;;;23.40;57.10
73073;BME280;61260;51.090;-1.786;2022-09-03T11:00:48;100191.05;;;23.25;57.31
73073;BME280;61260;51.090;-1.786;2022-09-03T11:03:43;100190.97;;;23.37;57.64
73073;BME280;61260;51.090;-1.786;2022-09-03T11:06:18;100190.61;;;23.70;57.30
73073;BME280;61260;51.090;-1.786;2022-09-03T11:08:55;100190.92;;;24.14;56.19
73073;BME280;61260;51.090;-1.786;2022-09-03T11:11:32;100196.29;;;24.54;55.02
73073;BME280;61260;51.090;-1.786;2022-09-03T11:14:08;100189.21;;;24.90;54.60
73073;BME280;61260;51.090;-1.786;2022-09-03T11:16:41;100185.38;;;25.19;53.91
73073;BME280;61260;51.090;-1.786;2022-09-03T11:19:15;100188.44;;;25.41;52.82
73073;BME280;61260;51.090;-1.786;2022-09-03T11:21:46;100185.48;;;25.46;52.17
73073;BME280;61260;51.090;-1.786;2022-09-03T11:24:21;100183.98;;;25.62;51.65
73073;BME280;61260;51.090;-1.786;2022-09-03T11:26:56;100183.11;;;25.86;51.68
73073;BME280;61260;51.090;-1.786;2022-09-03T11:29:35;100186.25;;;26.25;50.40
73073;BME280;61260;51.090;-1.786;2022-09-03T11:32:15;100187.02;;;26.36;49.09
73073;BME280;61260;51.090;-1.786;2022-09-03T11:34:48;100191.77;;;26.26;49.42
73073;BME280;61260;51.090;-1.786;2022-09-03T11:37:21;100193.33;;;26.18;49.01
73073;BME280;61260;51.090;-1.786;2022-09-03T11:40:05;100188.83;;;25.94;49.54
73073;BME280;61260;51.090;-1.786;2022-09-03T11:42:40;100188.94;;;25.69;50.19
73073;BME280;61260;51.090;-1.786;2022-09-03T11:45:13;100186.09;;;25.42;50.11
73073;BME280;61260;51.090;-1.786;2022-09-03T11:47:49;100188.23;;;25.12;50.67
73073;BME280;61260;51.090;-1.786;2022-09-03T11:50:22;100182.27;;;24.99;51.68
73073;BME280;61260;51.090;-1.786;2022-09-03T11:52:54;100182.10;;;25.28;51.51
73073;BME280;61260;51.090;-1.786;2022-09-03T11:55:30;100179.57;;;25.59;49.65
73073;BME280;61260;51.090;-1.786;2022-09-03T11:58:11;100177.97;;;25.80;49.27
73073;BME280;61260;51.090;-1.786;2022-09-03T12:00:43;100185.14;;;25.88;48.26
73073;BME280;61260;51.090;-1.786;2022-09-03T12:03:14;100178.59;;;25.61;48.19
73073;BME280;61260;51.090;-1.786;2022-09-03T12:05:45;100183.11;;;25.29;49.15
73073;BME280;61260;51.090;-1.786;2022-09-03T12:08:37;100191.04;;;25.07;49.26
73073;BME280;61260;51.090;-1.786;2022-09-03T12:11:23;100191.27;;;24.84;49.61
73073;BME280;61260;51.090;-1.786;2022-09-03T12:14:03;100192.44;;;24.73;49.70
73073;BME280;61260;51.090;-1.786;2022-09-03T12:16:54;100197.20;;;24.43;50.02
73073;BME280;61260;51.090;-1.786;2022-09-03T12:19:31;100190.21;;;24.17;51.19
73073;BME280;61260;51.090;-1.786;2022-09-03T12:22:04;100201.90;;;24.02;51.64
73073;BME280;61260;51.090;-1.786;2022-09-03T12:24:34;100203.42;;;23.82;51.96
73073;BME280;61260;51.090;-1.786;2022-09-03T12:27:05;100202.75;;;23.63;52.43
73073;BME280;61260;51.090;-1.786;2022-09-03T12:29:37;100202.38;;;23.46;52.80
73073;BME280;61260;51.090;-1.786;2022-09-03T12:32:10;100202.91;;;23.34;53.02
73073;BME280;61260;51.090;-1.786;2022-09-03T12:34:41;100209.76;;;23.29;53.23
73073;BME280;61260;51.090;-1.786;2022-09-03T12:37:20;100209.66;;;23.20;53.50
73073;BME280;61260;51.090;-1.786;2022-09-03T12:39:55;100211.75;;;23.13;54.04
73073;BME280;61260;51.090;-1.786;2022-09-03T12:42:27;100213.38;;;23.05;54.64
73073;BME280;61260;51.090;-1.786;2022-09-03T12:45:05;100220.20;;;22.99;54.76
73073;BME280;61260;51.090;-1.786;2022-09-03T12:47:40;100221.44;;;23.00;54.49
73073;BME280;61260;51.090;-1.786;2022-09-03T12:50:12;100219.38;;;23.06;54.85
73073;BME280;61260;51.090;-1.786;2022-09-03T12:52:44;100215.73;;;23.28;54.46
73073;BME280;61260;51.090;-1.786;2022-09-03T12:55:27;100216.55;;;23.51;53.83
73073;BME280;61260;51.090;-1.786;2022-09-03T12:58:03;100216.61;;;23.49;53.62
73073;BME280;61260;51.090;-1.786;2022-09-03T13:00:35;100213.58;;;23.46;54.17
73073;BME280;61260;51.090;-1.786;2022-09-03T13:03:09;100210.67;;;23.48;54.52
73073;BME280;61260;51.090;-1.786;2022-09-03T13:05:44;100212.38;;;23.52;54.37
73073;BME280;61260;51.090;-1.786;2022-09-03T13:08:20;100210.33;;;23.46;54.55
73073;BME280;61260;51.090;-1.786;2022-09-03T13:10:55;100215.60;;;23.48;54.49
73073;BME280;61260;51.090;-1.786;2022-09-03T13:13:28;100210.70;;;23.44;54.31
73073;BME280;61260;51.090;-1.786;2022-09-03T13:18:57;100216.73;;;23.27;55.00
73073;BME280;61260;51.090;-1.786;2022-09-03T13:21:40;100219.34;;;23.25;55.36
73073;BME280;61260;51.090;-1.786;2022-09-03T13:24:45;100221.84;;;23.20;55.68
73073;BME280;61260;51.090;-1.786;2022-09-03T13:27:25;100222.96;;;23.23;55.48